Naugatuck, Connecticut
Current Conditions -  °F | °C
As of 5:50 PM on Thursday 27 Nov 2014 (Local Time) from KOXC Reporting Station
Overcast Overcast  
Wind Chill: 25°   Ceiling: 5500
Heat Index: 30°   Visibility: 10mi
Dew Point: 23°   Wind: 5mph
Humidity: 75%   Direction: 340°NNW
Pressure: 29.99"   Gusts: NA
Location:  41.49°N, 73.05°W
Report Text: KOXC 272250Z 340004KT 10SM OVC055 M01/M05 A2999
Loading
Personal Weather Stations






























Interactive Weather Map New forecast layout! Learn more

10-Day Weather Forecast

Advertisements
Track Severe Weather on mobile